createdAt,value
2022-09-12T00:01:33.051Z,101825.28
2022-09-12T00:04:01.808Z,101824.66
2022-09-12T00:06:31.092Z,101824.75
2022-09-12T00:09:00.283Z,101815.69
2022-09-12T00:11:26.812Z,101816.53
2022-09-12T00:13:57.485Z,101816.75
2022-09-12T00:16:25.958Z,101812.59
2022-09-12T00:18:53.567Z,101806.06
2022-09-12T00:21:21.390Z,101802.22
2022-09-12T00:23:48.530Z,101804.56
2022-09-12T00:26:15.455Z,101795.91
2022-09-12T00:28:42.230Z,101799.44
2022-09-12T00:31:17.588Z,101785.75
2022-09-12T00:33:44.958Z,101791.53
2022-09-12T00:36:15.291Z,101790.47
2022-09-12T00:38:42.562Z,101787.88
2022-09-12T00:41:18.967Z,101788.41
2022-09-12T00:44:23.957Z,101787.34
2022-09-12T00:46:52.755Z,101782.56
2022-09-12T00:49:45.637Z,101789.50
2022-09-12T00:52:15.754Z,101788.09
2022-09-12T00:54:50.199Z,101784.13
2022-09-12T00:57:19.269Z,101778.16
2022-09-12T00:59:52.383Z,101783.91
2022-09-12T01:02:18.944Z,101782.50
2022-09-12T01:04:45.545Z,101785.19
2022-09-12T01:07:12.853Z,101781.75
2022-09-12T01:09:40.759Z,101775.69
2022-09-12T01:12:07.464Z,101774.94
2022-09-12T01:14:34.664Z,101780.34
2022-09-12T01:17:01.703Z,101774.38
2022-09-12T01:19:42.746Z,101780.88
2022-09-12T01:22:25.348Z,101776.84
2022-09-12T01:25:27.398Z,101773.09
2022-09-12T01:28:24.170Z,101773.53
2022-09-12T01:31:04.123Z,101765.94
2022-09-12T01:33:36.623Z,101759.84
2022-09-12T01:36:20.368Z,101765.28
2022-09-12T01:38:52.615Z,101758.78
2022-09-12T01:41:33.729Z,101763.38
2022-09-12T01:44:12.885Z,101757.38
2022-09-12T01:46:42.832Z,101748.63
2022-09-12T01:49:19.711Z,101748.63
2022-09-12T01:51:57.378Z,101748.72
2022-09-12T01:54:54.591Z,101746.13
2022-09-12T01:57:30.087Z,101743.88
2022-09-12T02:00:01.870Z,101738.63
2022-09-12T02:02:35.259Z,101734.03
2022-09-12T02:05:09.473Z,101728.06
2022-09-12T02:07:44.923Z,101734.56
2022-09-12T02:10:19.196Z,101725.91
2022-09-12T02:12:57.633Z,101720.25
2022-09-12T02:15:32.516Z,101716.19
2022-09-12T02:18:04.462Z,101730.69
2022-09-12T02:20:47.977Z,101722.38
2022-09-12T02:23:31.338Z,101722.03
2022-09-12T02:26:03.296Z,101714.56
2022-09-12T02:28:34.700Z,101715.72
2022-09-12T02:31:23.113Z,101711.22
2022-09-12T02:34:08.881Z,101713.25
2022-09-12T02:36:39.977Z,101712.06
2022-09-12T02:39:06.690Z,101713.66
2022-09-12T02:41:33.148Z,101711.09
2022-09-12T02:43:59.609Z,101703.94
2022-09-12T02:46:37.764Z,101699.44
2022-09-12T02:49:04.483Z,101697.09
2022-09-12T02:51:31.224Z,101695.19
2022-09-12T02:53:57.831Z,101694.53
2022-09-12T02:56:28.085Z,101693.88
2022-09-12T02:58:58.756Z,101698.44
2022-09-12T03:02:28.062Z,101690.00
2022-09-12T03:05:03.373Z,101684.75
2022-09-12T03:07:38.541Z,101684.00
2022-09-12T03:10:15.317Z,101679.00
2022-09-12T03:13:07.836Z,101686.16
2022-09-12T03:15:54.725Z,101681.34
2022-09-12T03:18:48.118Z,101679.94
2022-09-12T03:21:20.966Z,101687.59
2022-09-12T03:24:09.172Z,101681.09
2022-09-12T03:26:39.820Z,101681.19
2022-09-12T03:29:08.503Z,101683.94
2022-09-12T03:31:35.015Z,101683.69
2022-09-12T03:34:01.412Z,101672.28
2022-09-12T03:36:29.857Z,101675.38
2022-09-12T03:38:56.531Z,101676.84
2022-09-12T03:41:22.915Z,101676.78
2022-09-12T03:43:49.314Z,101671.88
2022-09-12T03:46:15.729Z,101671.88
2022-09-12T03:48:42.130Z,101673.03
2022-09-12T03:51:10.420Z,101668.88
2022-09-12T03:53:37.185Z,101669.63
2022-09-12T03:56:11.061Z,101665.47
2022-09-12T03:58:37.884Z,101654.13
2022-09-12T04:01:12.387Z,101658.31
2022-09-12T04:03:40.888Z,101660.22
2022-09-12T04:06:08.807Z,101653.72
2022-09-12T04:08:36.487Z,101649.56
2022-09-12T04:11:08.403Z,101650.31
2022-09-12T04:13:36.669Z,101649.56
2022-09-12T04:16:04.582Z,101654.25
2022-09-12T04:18:32.204Z,101657.41
2022-09-12T04:20:59.257Z,101656.34
2022-09-12T04:23:25.619Z,101660.16
2022-09-12T04:26:00.134Z,101659.84
2022-09-12T04:28:28.929Z,101656.00
2022-09-12T04:30:56.376Z,101652.09
2022-09-12T04:33:22.794Z,101655.84
2022-09-12T04:35:50.173Z,101653.91
2022-09-12T04:38:16.634Z,101656.50
2022-09-12T04:40:43.049Z,101648.50
2022-09-12T04:43:14.272Z,101650.72
2022-09-12T04:45:41.006Z,101660.53
2022-09-12T04:48:07.451Z,101657.13
2022-09-12T04:50:33.815Z,101645.31
2022-09-12T04:53:00.252Z,101650.97
2022-09-12T04:55:26.724Z,101651.63
2022-09-12T04:57:53.132Z,101654.63
2022-09-12T05:00:19.847Z,101654.97
2022-09-12T05:02:46.473Z,101650.72
2022-09-12T05:05:13.042Z,101651.78
2022-09-12T05:07:39.434Z,101653.63
2022-09-12T05:10:06.247Z,101657.34
2022-09-12T05:12:32.744Z,101642.88
2022-09-12T05:14:59.161Z,101640.53
2022-09-12T05:17:25.542Z,101645.34
2022-09-12T05:19:52.120Z,101647.19
2022-09-12T05:22:18.513Z,101641.44
2022-09-12T05:24:49.864Z,101639.50
2022-09-12T05:27:16.997Z,101644.84
2022-09-12T05:29:43.413Z,101654.00
2022-09-12T05:32:09.810Z,101650.47
2022-09-12T05:34:37.677Z,101646.97
2022-09-12T05:37:04.214Z,101643.78
2022-09-12T05:39:30.597Z,101631.97
2022-09-12T05:41:57.027Z,101633.78
2022-09-12T05:44:24.799Z,101638.69
2022-09-12T05:46:53.468Z,101646.69
2022-09-12T05:49:21.381Z,101647.19
2022-09-12T05:51:47.760Z,101632.59
2022-09-12T05:54:17.855Z,101628.69
2022-09-12T05:56:44.766Z,101639.34
2022-09-12T05:59:12.442Z,101642.00
2022-09-12T06:01:39.361Z,101642.75
2022-09-12T06:04:06.943Z,101636.34
2022-09-12T06:06:37.494Z,101640.09
2022-09-12T06:09:05.455Z,101638.09
2022-09-12T06:11:34.078Z,101643.31
2022-09-12T06:14:01.174Z,101640.97
2022-09-12T06:16:30.973Z,101639.19
2022-09-12T06:19:03.039Z,101638.22
2022-09-12T06:21:34.493Z,101646.53
2022-09-12T06:24:01.604Z,101646.88
2022-09-12T06:26:29.165Z,101652.44
2022-09-12T06:28:56.976Z,101647.78
2022-09-12T06:31:26.366Z,101644.91
2022-09-12T06:33:54.110Z,101646.91
2022-09-12T06:36:22.407Z,101658.56
2022-09-12T06:38:53.572Z,101643.50
2022-09-12T06:41:19.965Z,101647.38
2022-09-12T06:43:46.487Z,101647.16
2022-09-12T06:46:13.093Z,101639.88
2022-09-12T06:48:42.057Z,101641.50
2022-09-12T06:51:14.939Z,101642.88
2022-09-12T06:53:44.619Z,101639.00
2022-09-12T06:56:13.998Z,101643.31
2022-09-12T06:58:41.877Z,101635.66
2022-09-12T07:01:17.757Z,101633.34
2022-09-12T07:03:48.918Z,101632.69
2022-09-12T07:06:17.419Z,101622.06
2022-09-12T07:08:44.448Z,101633.13
2022-09-12T07:11:22.868Z,101626.78
2022-09-12T07:13:51.992Z,101632.19
2022-09-12T07:16:20.100Z,101629.38
2022-09-12T07:18:54.931Z,101628.66
2022-09-12T07:21:21.917Z,101628.97
2022-09-12T07:23:49.157Z,101636.41
2022-09-12T07:26:16.548Z,101635.81
2022-09-12T07:28:43.563Z,101635.50
2022-09-12T07:31:13.178Z,101631.94
2022-09-12T07:33:40.482Z,101628.44
2022-09-12T07:36:11.497Z,101637.50
2022-09-12T07:38:38.833Z,101634.19
2022-09-12T07:41:20.956Z,101628.03
2022-09-12T07:43:48.200Z,101625.59
2022-09-12T07:46:14.886Z,101628.88
2022-09-12T07:48:41.314Z,101631.66
2022-09-12T07:51:10.799Z,101631.09
2022-09-12T07:53:40.049Z,101630.97
2022-09-12T07:56:08.049Z,101634.94
2022-09-12T07:58:36.485Z,101638.16
2022-09-12T08:01:04.842Z,101639.63
2022-09-12T08:03:31.517Z,101643.09
2022-09-12T08:06:09.697Z,101640.16
2022-09-12T08:08:36.543Z,101641.81
2022-09-12T08:11:05.953Z,101637.00
2022-09-12T08:13:34.645Z,101636.63
2022-09-12T08:16:04.483Z,101634.72
2022-09-12T08:18:32.596Z,101632.31
2022-09-12T08:21:00.604Z,101640.41
2022-09-12T08:23:28.590Z,101649.00
2022-09-12T08:26:01.367Z,101643.09
2022-09-12T08:28:32.569Z,101642.00
2022-09-12T08:31:07.116Z,101638.22
2022-09-12T08:33:34.438Z,101643.00
2022-09-12T08:36:04.363Z,101641.88
2022-09-12T08:38:30.758Z,101639.00
2022-09-12T08:41:14.115Z,101642.09
2022-09-12T08:44:00.567Z,101645.03
2022-09-12T08:47:05.655Z,101641.88
2022-09-12T08:49:33.600Z,101644.03
2022-09-12T08:52:05.888Z,101641.34
2022-09-12T08:54:33.217Z,101644.56
2022-09-12T08:57:03.880Z,101645.84
2022-09-12T08:59:39.625Z,101646.09
2022-09-12T09:02:45.786Z,101632.59
2022-09-12T09:05:30.854Z,101633.56
2022-09-12T09:08:21.899Z,101629.06
2022-09-12T09:11:12.781Z,101623.13
2022-09-12T09:14:39.477Z,101623.88
2022-09-12T09:17:13.037Z,101626.09
2022-09-12T09:19:50.943Z,101619.94
2022-09-12T09:22:36.407Z,101615.97
2022-09-12T09:25:11.143Z,101616.19
2022-09-12T09:27:51.888Z,101610.97
2022-09-12T09:30:21.452Z,101617.25
2022-09-12T09:32:55.089Z,101610.75
2022-09-12T09:35:44.870Z,101608.97
2022-09-12T09:38:45.039Z,101608.34
2022-09-12T09:41:27.205Z,101610.09
2022-09-12T09:43:53.743Z,101613.50
2022-09-12T09:46:20.414Z,101610.66
2022-09-12T09:48:50.376Z,101617.31
2022-09-12T09:51:22.303Z,101608.38
2022-09-12T09:53:54.847Z,101605.75
2022-09-12T09:56:40.063Z,101602.44
2022-09-12T09:59:12.500Z,101596.16
2022-09-12T10:01:51.401Z,101592.91
2022-09-12T10:04:24.267Z,101593.13
2022-09-12T10:06:52.488Z,101592.56
2022-09-12T10:09:22.866Z,101586.63
2022-09-12T10:11:50.960Z,101596.03
2022-09-12T10:14:37.677Z,101587.16
2022-09-12T10:17:22.749Z,101581.78
2022-09-12T10:19:59.879Z,101579.94
2022-09-12T10:22:35.573Z,101577.97
2022-09-12T10:25:02.351Z,101570.22
2022-09-12T10:27:32.314Z,101569.44
2022-09-12T10:30:01.836Z,101571.91
2022-09-12T10:32:43.731Z,101558.28
2022-09-12T10:35:28.403Z,101563.75
2022-09-12T10:37:54.727Z,101559.53
2022-09-12T10:40:27.667Z,101558.16
2022-09-12T10:42:57.204Z,101552.25
2022-09-12T10:45:26.281Z,101543.28
2022-09-12T10:47:54.756Z,101549.44
2022-09-12T10:50:24.021Z,101543.44
2022-09-12T10:52:50.952Z,101539.72
2022-09-12T10:55:17.528Z,101532.41
2022-09-12T10:57:58.984Z,101533.34
2022-09-12T11:00:30.243Z,101536.47
2022-09-12T11:03:22.049Z,101529.47
2022-09-12T11:05:55.944Z,101525.59
2022-09-12T11:08:48.772Z,101526.31
2022-09-12T11:11:32.140Z,101523.88
2022-09-12T11:14:21.656Z,101532.13
2022-09-12T11:17:09.705Z,101534.03
2022-09-12T11:19:42.127Z,101523.22
2022-09-12T11:22:36.565Z,101529.53
2022-09-12T11:25:41.640Z,101527.66
2022-09-12T11:28:28.820Z,101523.88
2022-09-12T11:31:20.358Z,101522.19
2022-09-12T11:33:56.693Z,101522.53
2022-09-12T11:36:33.024Z,101520.16
2022-09-12T11:39:13.205Z,101525.88
2022-09-12T11:41:47.940Z,101518.75
2022-09-12T11:44:17.386Z,101519.78
2022-09-12T11:46:47.616Z,101512.50
2022-09-12T11:49:39.871Z,101510.69
2022-09-12T11:52:25.274Z,101515.81
2022-09-12T11:55:05.854Z,101518.47
2022-09-12T11:57:43.910Z,101515.69
2022-09-12T12:00:17.747Z,101509.06
2022-09-12T12:02:59.276Z,101511.56
2022-09-12T12:05:47.399Z,101506.34
2022-09-12T12:08:14.553Z,101500.81
2022-09-12T12:10:43.812Z,101496.34
2022-09-12T12:13:23.724Z,101488.06
2022-09-12T12:15:55.085Z,101485.25
2022-09-12T12:18:25.443Z,101478.28
2022-09-12T12:20:53.209Z,101487.59
2022-09-12T12:23:26.952Z,101490.53
2022-09-12T12:25:56.731Z,101494.63
2022-09-12T12:28:41.122Z,101492.88
2022-09-12T12:31:09.489Z,101486.56
2022-09-12T12:33:38.825Z,101487.75
2022-09-12T12:36:09.194Z,101480.13
2022-09-12T12:38:40.734Z,101479.81
2022-09-12T12:41:19.170Z,101480.25
2022-09-12T12:43:54.454Z,101474.47
2022-09-12T12:46:22.668Z,101478.13
2022-09-12T12:49:08.346Z,101473.63
2022-09-12T12:51:56.492Z,101468.00
2022-09-12T12:54:32.727Z,101458.50
2022-09-12T12:57:17.708Z,101458.16
2022-09-12T12:59:55.480Z,101447.06
2022-09-12T13:02:31.698Z,101443.53
2022-09-12T13:05:01.271Z,101439.56
2022-09-12T13:07:32.750Z,101435.38
2022-09-12T13:10:01.329Z,101439.13
2022-09-12T13:12:32.633Z,101443.31
2022-09-12T13:15:00.546Z,101438.47
2022-09-12T13:17:39.143Z,101434.28
2022-09-12T13:20:28.754Z,101421.94
2022-09-12T13:22:57.286Z,101417.53
2022-09-12T13:25:36.859Z,101414.22
2022-09-12T13:28:15.611Z,101413.69
2022-09-12T13:31:06.830Z,101400.78
2022-09-12T13:33:42.559Z,101400.41
2022-09-12T13:36:27.827Z,101402.81
2022-09-12T13:38:54.416Z,101401.13
2022-09-12T13:41:49.067Z,101403.56
2022-09-12T13:44:19.286Z,101405.78
2022-09-12T13:46:46.453Z,101398.41
2022-09-12T13:49:22.536Z,101399.44
2022-09-12T13:52:09.297Z,101400.41
2022-09-12T13:54:38.839Z,101393.19
2022-09-12T13:57:05.906Z,101396.44
2022-09-12T13:59:42.665Z,101399.00
2022-09-12T14:02:23.668Z,101393.44
2022-09-12T14:05:08.929Z,101384.53
2022-09-12T14:07:46.506Z,101383.81
2022-09-12T14:10:18.236Z,101384.25
2022-09-12T14:12:50.654Z,101379.03
2022-09-12T14:15:19.576Z,101374.75
2022-09-12T14:17:51.990Z,101373.81
2022-09-12T14:20:20.209Z,101371.81
2022-09-12T14:22:50.565Z,101372.03
2022-09-12T14:25:20.465Z,101372.56
2022-09-12T14:27:52.451Z,101359.69
2022-09-12T14:30:30.298Z,101362.28
2022-09-12T14:33:11.685Z,101340.31
2022-09-12T14:35:43.602Z,101341.56
2022-09-12T14:38:23.984Z,101345.75
2022-09-12T14:40:58.964Z,101337.69
2022-09-12T14:43:27.807Z,101332.97
2022-09-12T14:46:00.237Z,101327.31
2022-09-12T14:48:30.685Z,101326.38
2022-09-12T14:50:57.864Z,101335.69
2022-09-12T14:53:30.849Z,101340.09
2022-09-12T14:56:11.851Z,101327.75
2022-09-12T14:58:40.437Z,101323.88
2022-09-12T15:01:07.127Z,101325.22
2022-09-12T15:03:37.988Z,101322.81
2022-09-12T15:06:07.916Z,101323.59
2022-09-12T15:08:34.540Z,101325.66
2022-09-12T15:11:00.967Z,101319.78
2022-09-12T15:13:28.914Z,101322.03
2022-09-12T15:15:57.333Z,101326.97
2022-09-12T15:18:29.095Z,101323.28
2022-09-12T15:21:07.585Z,101324.09
2022-09-12T15:23:52.781Z,101316.75
2022-09-12T15:26:22.488Z,101320.00
2022-09-12T15:28:49.997Z,101313.63
2022-09-12T15:31:25.787Z,101304.19
2022-09-12T15:33:53.034Z,101307.25
2022-09-12T15:36:22.839Z,101306.19
2022-09-12T15:38:49.725Z,101313.63
2022-09-12T15:41:19.148Z,101310.69
2022-09-12T15:43:46.569Z,101303.06
2022-09-12T15:46:14.768Z,101294.69
2022-09-12T15:48:41.356Z,101301.16
2022-09-12T15:51:15.971Z,101297.19
2022-09-12T15:53:43.372Z,101287.06
2022-09-12T15:56:10.025Z,101282.81
2022-09-12T15:58:36.742Z,101280.59
2022-09-12T16:01:04.221Z,101280.38
2022-09-12T16:03:30.919Z,101274.94
2022-09-12T16:05:59.319Z,101270.03
2022-09-12T16:08:25.823Z,101272.75
2022-09-12T16:10:58.816Z,101271.34
2022-09-12T16:13:25.855Z,101272.16
2022-09-12T16:15:52.769Z,101267.44
2022-09-12T16:18:19.231Z,101271.41
2022-09-12T16:20:45.673Z,101262.09
2022-09-12T16:23:13.435Z,101258.19
2022-09-12T16:25:40.529Z,101251.31
2022-09-12T16:28:07.323Z,101255.56
2022-09-12T16:30:33.987Z,101255.09
2022-09-12T16:33:00.598Z,101255.69
2022-09-12T16:35:27.224Z,101255.97
2022-09-12T16:37:53.700Z,101246.88
2022-09-12T16:40:20.224Z,101244.50
2022-09-12T16:42:46.726Z,101253.94
2022-09-12T16:45:13.542Z,101254.00
2022-09-12T16:47:40.076Z,101253.56
2022-09-12T16:50:07.203Z,101257.09
2022-09-12T16:52:34.618Z,101252.22
2022-09-12T16:55:00.993Z,101244.88
2022-09-12T16:57:27.368Z,101246.63
2022-09-12T16:59:53.735Z,101240.28
2022-09-12T17:02:20.498Z,101229.28
2022-09-12T17:04:46.896Z,101224.88
2022-09-12T17:07:13.304Z,101216.03
2022-09-12T17:09:39.696Z,101208.69
2022-09-12T17:12:06.485Z,101217.16
2022-09-12T17:14:33.005Z,101203.88
2022-09-12T17:16:59.474Z,101206.41
2022-09-12T17:19:29.486Z,101204.69
2022-09-12T17:21:57.028Z,101206.94
2022-09-12T17:24:24.076Z,101198.91
2022-09-12T17:26:51.011Z,101199.66
2022-09-12T17:29:17.940Z,101187.41
2022-09-12T17:31:45.274Z,101188.41
2022-09-12T17:34:14.305Z,101200.53
2022-09-12T17:36:44.111Z,101199.59
2022-09-12T17:39:11.770Z,101203.06
2022-09-12T17:41:38.424Z,101206.31
2022-09-12T17:44:07.238Z,101217.91
2022-09-12T17:46:36.686Z,101219.91
2022-09-12T17:49:15.047Z,101209.34
2022-09-12T17:51:43.758Z,101219.22
2022-09-12T17:54:13.912Z,101216.56
2022-09-12T17:56:40.375Z,101212.94
2022-09-12T17:59:08.048Z,101212.22
2022-09-12T18:01:54.165Z,101203.63
2022-09-12T18:04:20.844Z,101200.72
2022-09-12T18:06:50.077Z,101202.69
2022-09-12T18:09:21.961Z,101196.81
2022-09-12T18:11:49.053Z,101196.59
2022-09-12T18:14:15.682Z,101199.31
2022-09-12T18:16:43.105Z,101199.81
2022-09-12T18:19:10.993Z,101207.19
2022-09-12T18:21:37.770Z,101215.31
2022-09-12T18:24:04.796Z,101213.59
2022-09-12T18:26:31.702Z,101222.22
2022-09-12T18:28:58.691Z,101221.72
2022-09-12T18:31:28.701Z,101228.09
2022-09-12T18:33:56.261Z,101221.22
2022-09-12T18:36:23.444Z,101222.94
2022-09-12T18:38:49.917Z,101221.25
2022-09-12T18:41:21.609Z,101223.94
2022-09-12T18:43:53.160Z,101227.59
2022-09-12T18:46:19.578Z,101218.75
2022-09-12T18:48:46.705Z,101214.06
2022-09-12T18:51:16.447Z,101204.72
2022-09-12T18:53:43.493Z,101210.59
2022-09-12T18:56:12.811Z,101211.34
2022-09-12T18:58:41.955Z,101210.59
2022-09-12T19:01:17.047Z,101203.47
2022-09-12T19:03:44.099Z,101199.28
2022-09-12T19:06:12.742Z,101189.97
2022-09-12T19:08:39.955Z,101193.63
2022-09-12T19:11:07.720Z,101182.81
2022-09-12T19:13:37.026Z,101182.31
2022-09-12T19:16:05.162Z,101180.59
2022-09-12T19:18:33.523Z,101183.50
2022-09-12T19:21:01.382Z,101173.47
2022-09-12T19:23:27.781Z,101167.31
2022-09-12T19:25:59.094Z,101167.81
2022-09-12T19:28:25.625Z,101172.44
2022-09-12T19:30:53.192Z,101167.25
2022-09-12T19:33:19.951Z,101166.25
2022-09-12T19:35:46.621Z,101166.00
2022-09-12T19:38:13.464Z,101168.44
2022-09-12T19:40:39.957Z,101167.94
2022-09-12T19:43:07.291Z,101170.13
2022-09-12T19:45:33.956Z,101166.91
2022-09-12T19:48:00.917Z,101171.06
2022-09-12T19:50:27.691Z,101178.91
2022-09-12T19:52:54.195Z,101175.47
2022-09-12T19:55:20.748Z,101177.44
2022-09-12T19:57:47.186Z,101180.59
2022-09-12T20:00:14.102Z,101187.00
2022-09-12T20:02:40.563Z,101181.84
2022-09-12T20:05:07.306Z,101182.34
2022-09-12T20:07:33.692Z,101180.13
2022-09-12T20:10:00.241Z,101172.00
2022-09-12T20:12:26.823Z,101181.31
2022-09-12T20:14:53.187Z,101162.41
2022-09-12T20:17:19.579Z,101154.81
2022-09-12T20:19:45.956Z,101154.06
2022-09-12T20:22:12.344Z,101152.34
2022-09-12T20:24:38.750Z,101159.16
2022-09-12T20:27:05.130Z,101151.78
2022-09-12T20:29:31.558Z,101141.25
2022-09-12T20:31:57.944Z,101132.91
2022-09-12T20:34:24.375Z,101141.97
2022-09-12T20:36:50.783Z,101155.66
2022-09-12T20:39:20.759Z,101155.13
2022-09-12T20:41:47.270Z,101152.16
2022-09-12T20:44:14.067Z,101151.63
2022-09-12T20:46:41.313Z,101143.75
2022-09-12T20:49:08.812Z,101151.59
2022-09-12T20:51:38.240Z,101155.72
2022-09-12T20:54:06.555Z,101158.88
2022-09-12T20:56:35.236Z,101152.53
2022-09-12T20:59:02.230Z,101155.50
2022-09-12T21:01:29.936Z,101152.53
2022-09-12T21:03:56.664Z,101155.91
2022-09-12T21:06:23.331Z,101160.53
2022-09-12T21:08:50.789Z,101163.44
2022-09-12T21:11:18.692Z,101154.63
2022-09-12T21:13:45.652Z,101149.25
2022-09-12T21:16:17.066Z,101139.22
2022-09-12T21:18:44.362Z,101134.81
2022-09-12T21:21:13.046Z,101133.34
2022-09-12T21:23:40.652Z,101127.44
2022-09-12T21:26:07.531Z,101130.34
2022-09-12T21:28:34.248Z,101129.13
2022-09-12T21:31:00.815Z,101131.56
2022-09-12T21:33:27.984Z,101141.59
2022-09-12T21:35:55.223Z,101150.59
2022-09-12T21:38:21.651Z,101151.28
2022-09-12T21:40:48.061Z,101146.38
2022-09-12T21:43:14.791Z,101138.31
2022-09-12T21:45:41.188Z,101143.69
2022-09-12T21:48:07.693Z,101146.38
2022-09-12T21:50:34.410Z,101144.44
2022-09-12T21:53:00.830Z,101137.56
2022-09-12T21:55:27.354Z,101140.00
2022-09-12T21:57:54.703Z,101139.25
2022-09-12T22:00:22.160Z,101142.69
2022-09-12T22:02:48.639Z,101143.16
2022-09-12T22:05:16.094Z,101149.50
2022-09-12T22:07:42.548Z,101146.06
2022-09-12T22:10:09.355Z,101155.09
2022-09-12T22:12:35.736Z,101150.44
2022-09-12T22:15:23.083Z,101148.75
2022-09-12T22:17:48.526Z,101152.66
2022-09-12T22:20:15.044Z,101146.81
2022-09-12T22:22:59.771Z,101149.03
2022-09-12T22:25:26.143Z,101150.72
2022-09-12T22:27:52.846Z,101146.56
2022-09-12T22:30:20.838Z,101152.66
2022-09-12T22:32:49.587Z,101139.69
2022-09-12T22:35:20.800Z,101134.56
2022-09-12T22:37:47.779Z,101131.88
2022-09-12T22:40:15.490Z,101130.66
2022-09-12T22:42:41.996Z,101119.16
2022-09-12T22:45:08.936Z,101122.59
2022-09-12T22:47:35.898Z,101123.34
2022-09-12T22:50:02.321Z,101119.91
2022-09-12T22:52:28.754Z,101117.22
2022-09-12T22:54:55.123Z,101115.25
2022-09-12T22:57:21.615Z,101113.31
2022-09-12T22:59:47.978Z,101103.03
2022-09-12T23:02:14.419Z,101103.28
2022-09-12T23:04:40.838Z,101096.44
2022-09-12T23:07:07.349Z,101097.16
2022-09-12T23:09:35.519Z,101094.94
2022-09-12T23:12:02.570Z,101088.09
2022-09-12T23:14:29.043Z,101086.63
2022-09-12T23:16:55.537Z,101083.19
2022-09-12T23:19:21.884Z,101088.31
2022-09-12T23:21:48.436Z,101091.00
2022-09-12T23:24:14.843Z,101087.31
2022-09-12T23:26:41.257Z,101089.25
2022-09-12T23:29:08.709Z,101091.69
2022-09-12T23:31:35.133Z,101094.38
2022-09-12T23:34:05.695Z,101085.56
2022-09-12T23:36:32.863Z,101082.16
2022-09-12T23:38:59.268Z,101084.34
2022-09-12T23:41:25.691Z,101074.81
2022-09-12T23:43:52.157Z,101074.09
2022-09-12T23:46:20.357Z,101074.56
2022-09-12T23:48:47.033Z,101073.56
2022-09-12T23:51:13.916Z,101072.84
2022-09-12T23:53:40.988Z,101070.16
2022-09-12T23:56:07.404Z,101064.03
2022-09-12T23:58:33.873Z,101071.34
